sensor_id;sensor_type;location;lat;lon;timestamp;P1;durP1;ratioP1;P2;durP2;ratioP2
6561;SDS011;3314;50.890;4.722;2023-04-06T00:00:31;24.0;;;9.1;;
6561;SDS011;3314;50.890;4.722;2023-04-06T00:02:31;21.6;;;8.0;;
6561;SDS011;3314;50.890;4.722;2023-04-06T00:04:31;25.3;;;9.0;;
6561;SDS011;3314;50.890;4.722;2023-04-06T00:06:30;24.6;;;8.4;;
6561;SDS011;3314;50.890;4.722;2023-04-06T00:08:30;28.8;;;9.4;;
6561;SDS011;3314;50.890;4.722;2023-04-06T00:10:30;22.0;;;8.7;;
6561;SDS011;3314;50.890;4.722;2023-04-06T00:12:30;25.3;;;9.4;;
6561;SDS011;3314;50.890;4.722;2023-04-06T00:14:19;24.0;;;8.9;;
6561;SDS011;3314;50.890;4.722;2023-04-06T00:16:19;23.8;;;8.3;;
6561;SDS011;3314;50.890;4.722;2023-04-06T00:18:20;24.4;;;8.6;;
6561;SDS011;3314;50.890;4.722;2023-04-06T00:20:19;23.7;;;9.2;;
6561;SDS011;3314;50.890;4.722;2023-04-06T00:22:19;24.0;;;8.2;;
6561;SDS011;3314;50.890;4.722;2023-04-06T00:24:19;25.1;;;8.1;;
6561;SDS011;3314;50.890;4.722;2023-04-06T00:26:18;19.8;;;8.0;;
6561;SDS011;3314;50.890;4.722;2023-04-06T00:28:21;26.1;;;8.7;;
6561;SDS011;3314;50.890;4.722;2023-04-06T00:30:21;26.9;;;8.6;;
6561;SDS011;3314;50.890;4.722;2023-04-06T00:32:21;21.1;;;8.8;;
6561;SDS011;3314;50.890;4.722;2023-04-06T00:34:21;23.3;;;10.0;;
6561;SDS011;3314;50.890;4.722;2023-04-06T00:36:20;22.1;;;8.5;;
6561;SDS011;3314;50.890;4.722;2023-04-06T00:38:21;22.6;;;9.0;;
6561;SDS011;3314;50.890;4.722;2023-04-06T00:40:21;23.4;;;8.1;;
6561;SDS011;3314;50.890;4.722;2023-04-06T00:42:25;22.5;;;8.0;;
6561;SDS011;3314;50.890;4.722;2023-04-06T00:44:13;25.3;;;9.5;;
6561;SDS011;3314;50.890;4.722;2023-04-06T00:46:13;28.1;;;8.5;;
6561;SDS011;3314;50.890;4.722;2023-04-06T00:48:13;23.4;;;9.0;;
6561;SDS011;3314;50.890;4.722;2023-04-06T00:50:13;23.1;;;8.5;;
6561;SDS011;3314;50.890;4.722;2023-04-06T00:52:12;22.8;;;9.0;;
6561;SDS011;3314;50.890;4.722;2023-04-06T00:54:12;22.2;;;9.2;;
6561;SDS011;3314;50.890;4.722;2023-04-06T00:56:12;21.9;;;8.9;;
6561;SDS011;3314;50.890;4.722;2023-04-06T00:58:11;27.3;;;10.4;;
6561;SDS011;3314;50.890;4.722;2023-04-06T01:00:12;22.2;;;9.0;;
6561;SDS011;3314;50.890;4.722;2023-04-06T01:02:16;28.2;;;10.1;;
6561;SDS011;3314;50.890;4.722;2023-04-06T01:04:23;22.4;;;8.8;;
6561;SDS011;3314;50.890;4.722;2023-04-06T01:06:15;25.8;;;9.1;;
6561;SDS011;3314;50.890;4.722;2023-04-06T01:08:21;23.9;;;8.7;;
6561;SDS011;3314;50.890;4.722;2023-04-06T01:10:22;27.1;;;9.8;;
6561;SDS011;3314;50.890;4.722;2023-04-06T01:12:14;28.2;;;9.6;;
6561;SDS011;3314;50.890;4.722;2023-04-06T01:14:19;25.9;;;9.5;;
6561;SDS011;3314;50.890;4.722;2023-04-06T01:16:12;26.9;;;9.8;;
6561;SDS011;3314;50.890;4.722;2023-04-06T01:18:17;26.5;;;10.8;;
6561;SDS011;3314;50.890;4.722;2023-04-06T01:20:11;27.4;;;9.7;;
6561;SDS011;3314;50.890;4.722;2023-04-06T01:22:16;28.8;;;10.5;;
6561;SDS011;3314;50.890;4.722;2023-04-06T01:24:10;33.1;;;11.3;;
6561;SDS011;3314;50.890;4.722;2023-04-06T01:26:15;26.2;;;9.7;;
6561;SDS011;3314;50.890;4.722;2023-04-06T01:28:10;27.3;;;9.4;;
6561;SDS011;3314;50.890;4.722;2023-04-06T01:30:15;27.9;;;11.3;;
6561;SDS011;3314;50.890;4.722;2023-04-06T01:32:09;27.1;;;9.7;;
6561;SDS011;3314;50.890;4.722;2023-04-06T01:34:08;26.8;;;10.7;;
6561;SDS011;3314;50.890;4.722;2023-04-06T01:36:08;24.0;;;9.5;;
6561;SDS011;3314;50.890;4.722;2023-04-06T01:38:08;28.9;;;10.3;;
6561;SDS011;3314;50.890;4.722;2023-04-06T01:40:08;27.9;;;9.2;;
6561;SDS011;3314;50.890;4.722;2023-04-06T01:42:08;26.8;;;10.3;;
6561;SDS011;3314;50.890;4.722;2023-04-06T01:44:07;32.8;;;10.1;;
6561;SDS011;3314;50.890;4.722;2023-04-06T01:46:07;24.1;;;9.1;;
6561;SDS011;3314;50.890;4.722;2023-04-06T01:48:07;23.8;;;9.0;;
6561;SDS011;3314;50.890;4.722;2023-04-06T01:50:08;22.1;;;8.5;;
6561;SDS011;3314;50.890;4.722;2023-04-06T01:52:07;21.5;;;8.4;;
6561;SDS011;3314;50.890;4.722;2023-04-06T01:54:07;22.9;;;8.8;;
6561;SDS011;3314;50.890;4.722;2023-04-06T01:56:07;23.3;;;8.1;;
6561;SDS011;3314;50.890;4.722;2023-04-06T01:58:06;22.8;;;7.9;;
6561;SDS011;3314;50.890;4.722;2023-04-06T02:00:06;23.9;;;9.6;;
6561;SDS011;3314;50.890;4.722;2023-04-06T02:02:06;22.1;;;7.5;;
6561;SDS011;3314;50.890;4.722;2023-04-06T02:04:06;28.9;;;8.6;;
6561;SDS011;3314;50.890;4.722;2023-04-06T02:06:06;19.9;;;7.9;;
6561;SDS011;3314;50.890;4.722;2023-04-06T02:08:06;18.8;;;7.8;;
6561;SDS011;3314;50.890;4.722;2023-04-06T02:10:10;19.1;;;7.5;;
6561;SDS011;3314;50.890;4.722;2023-04-06T02:11:58;23.7;;;7.9;;
6561;SDS011;3314;50.890;4.722;2023-04-06T02:14:00;19.2;;;8.1;;
6561;SDS011;3314;50.890;4.722;2023-04-06T02:16:00;21.0;;;7.3;;
6561;SDS011;3314;50.890;4.722;2023-04-06T02:18:00;20.7;;;7.4;;
6561;SDS011;3314;50.890;4.722;2023-04-06T02:20:00;22.4;;;8.8;;
6561;SDS011;3314;50.890;4.722;2023-04-06T02:21:59;22.4;;;8.1;;
6561;SDS011;3314;50.890;4.722;2023-04-06T02:23:59;21.5;;;6.9;;
6561;SDS011;3314;50.890;4.722;2023-04-06T02:25:59;18.4;;;7.3;;
6561;SDS011;3314;50.890;4.722;2023-04-06T02:27:58;26.1;;;8.3;;
6561;SDS011;3314;50.890;4.722;2023-04-06T02:29:58;24.0;;;8.4;;
6561;SDS011;3314;50.890;4.722;2023-04-06T02:31:58;28.2;;;9.0;;
6561;SDS011;3314;50.890;4.722;2023-04-06T02:33:57;23.0;;;8.2;;
6561;SDS011;3314;50.890;4.722;2023-04-06T02:35:57;22.2;;;7.6;;
6561;SDS011;3314;50.890;4.722;2023-04-06T02:37:57;21.2;;;8.0;;
6561;SDS011;3314;50.890;4.722;2023-04-06T02:39:56;21.4;;;8.1;;
6561;SDS011;3314;50.890;4.722;2023-04-06T02:41:57;27.2;;;7.9;;
6561;SDS011;3314;50.890;4.722;2023-04-06T02:43:57;25.0;;;8.1;;
6561;SDS011;3314;50.890;4.722;2023-04-06T02:45:56;23.3;;;7.9;;
6561;SDS011;3314;50.890;4.722;2023-04-06T02:47:56;22.1;;;7.2;;
6561;SDS011;3314;50.890;4.722;2023-04-06T02:49:56;20.7;;;7.1;;
6561;SDS011;3314;50.890;4.722;2023-04-06T02:51:55;19.6;;;7.9;;
6561;SDS011;3314;50.890;4.722;2023-04-06T02:53:55;23.1;;;8.4;;
6561;SDS011;3314;50.890;4.722;2023-04-06T02:55:56;22.7;;;8.2;;
6561;SDS011;3314;50.890;4.722;2023-04-06T02:57:55;22.3;;;7.5;;
6561;SDS011;3314;50.890;4.722;2023-04-06T02:59:55;20.2;;;7.7;;
6561;SDS011;3314;50.890;4.722;2023-04-06T03:01:55;21.2;;;7.8;;
6561;SDS011;3314;50.890;4.722;2023-04-06T03:03:55;23.5;;;8.0;;
6561;SDS011;3314;50.890;4.722;2023-04-06T03:05:55;19.7;;;7.1;;
6561;SDS011;3314;50.890;4.722;2023-04-06T03:07:54;19.4;;;7.6;;
6561;SDS011;3314;50.890;4.722;2023-04-06T03:09:54;22.6;;;7.7;;
6561;SDS011;3314;50.890;4.722;2023-04-06T03:11:54;22.5;;;8.2;;
6561;SDS011;3314;50.890;4.722;2023-04-06T03:13:53;20.1;;;7.7;;
6561;SDS011;3314;50.890;4.722;2023-04-06T03:15:53;24.5;;;8.2;;
6561;SDS011;3314;50.890;4.722;2023-04-06T03:17:53;22.0;;;7.6;;
6561;SDS011;3314;50.890;4.722;2023-04-06T03:19:52;19.6;;;7.3;;
6561;SDS011;3314;50.890;4.722;2023-04-06T03:21:52;20.7;;;7.6;;
6561;SDS011;3314;50.890;4.722;2023-04-06T03:23:52;20.9;;;7.6;;
6561;SDS011;3314;50.890;4.722;2023-04-06T03:25:51;17.2;;;6.7;;
6561;SDS011;3314;50.890;4.722;2023-04-06T03:27:51;19.2;;;7.5;;
6561;SDS011;3314;50.890;4.722;2023-04-06T03:29:51;16.7;;;6.0;;
6561;SDS011;3314;50.890;4.722;2023-04-06T03:31:50;22.0;;;7.4;;
6561;SDS011;3314;50.890;4.722;2023-04-06T03:33:50;20.0;;;7.4;;
6561;SDS011;3314;50.890;4.722;2023-04-06T03:35:40;26.6;;;9.2;;
6561;SDS011;3314;50.890;4.722;2023-04-06T03:37:40;20.7;;;7.4;;
6561;SDS011;3314;50.890;4.722;2023-04-06T03:39:40;19.4;;;7.5;;
6561;SDS011;3314;50.890;4.722;2023-04-06T03:41:39;23.5;;;7.9;;
6561;SDS011;3314;50.890;4.722;2023-04-06T03:43:39;21.0;;;7.0;;
6561;SDS011;3314;50.890;4.722;2023-04-06T03:45:39;21.0;;;7.3;;
6561;SDS011;3314;50.890;4.722;2023-04-06T03:47:38;19.0;;;7.2;;
6561;SDS011;3314;50.890;4.722;2023-04-06T03:49:38;23.9;;;8.7;;
6561;SDS011;3314;50.890;4.722;2023-04-06T03:51:38;20.9;;;7.9;;
6561;SDS011;3314;50.890;4.722;2023-04-06T03:53:38;20.2;;;7.0;;
6561;SDS011;3314;50.890;4.722;2023-04-06T03:55:37;19.7;;;7.9;;
6561;SDS011;3314;50.890;4.722;2023-04-06T03:57:37;19.9;;;7.1;;
6561;SDS011;3314;50.890;4.722;2023-04-06T03:59:37;18.6;;;7.4;;
6561;SDS011;3314;50.890;4.722;2023-04-06T04:01:37;20.0;;;7.9;;
6561;SDS011;3314;50.890;4.722;2023-04-06T04:03:36;19.8;;;7.3;;
6561;SDS011;3314;50.890;4.722;2023-04-06T04:05:36;21.4;;;8.0;;
6561;SDS011;3314;50.890;4.722;2023-04-06T04:07:36;20.5;;;6.9;;
6561;SDS011;3314;50.890;4.722;2023-04-06T04:09:36;18.6;;;7.0;;
6561;SDS011;3314;50.890;4.722;2023-04-06T04:11:36;16.6;;;6.8;;
6561;SDS011;3314;50.890;4.722;2023-04-06T04:13:36;21.9;;;7.9;;
6561;SDS011;3314;50.890;4.722;2023-04-06T04:15:35;18.4;;;7.7;;
6561;SDS011;3314;50.890;4.722;2023-04-06T04:17:35;22.7;;;7.6;;
6561;SDS011;3314;50.890;4.722;2023-04-06T04:19:35;21.4;;;7.8;;
6561;SDS011;3314;50.890;4.722;2023-04-06T04:21:41;20.8;;;7.6;;
6561;SDS011;3314;50.890;4.722;2023-04-06T04:23:31;22.3;;;6.5;;
6561;SDS011;3314;50.890;4.722;2023-04-06T04:25:30;21.3;;;8.3;;
6561;SDS011;3314;50.890;4.722;2023-04-06T04:27:30;18.4;;;7.6;;
6561;SDS011;3314;50.890;4.722;2023-04-06T04:29:30;21.5;;;7.9;;
6561;SDS011;3314;50.890;4.722;2023-04-06T04:31:30;17.7;;;6.9;;
6561;SDS011;3314;50.890;4.722;2023-04-06T04:33:29;20.1;;;8.6;;
6561;SDS011;3314;50.890;4.722;2023-04-06T04:35:29;20.2;;;7.2;;
6561;SDS011;3314;50.890;4.722;2023-04-06T04:37:29;18.8;;;7.5;;
6561;SDS011;3314;50.890;4.722;2023-04-06T04:39:29;22.3;;;7.3;;
6561;SDS011;3314;50.890;4.722;2023-04-06T04:41:29;17.8;;;7.2;;
6561;SDS011;3314;50.890;4.722;2023-04-06T04:43:28;19.3;;;7.1;;
6561;SDS011;3314;50.890;4.722;2023-04-06T04:45:28;20.7;;;8.0;;
6561;SDS011;3314;50.890;4.722;2023-04-06T04:47:28;18.9;;;7.0;;
6561;SDS011;3314;50.890;4.722;2023-04-06T04:49:27;23.9;;;8.1;;
6561;SDS011;3314;50.890;4.722;2023-04-06T04:51:27;21.3;;;7.8;;
6561;SDS011;3314;50.890;4.722;2023-04-06T04:53:27;21.8;;;7.4;;
6561;SDS011;3314;50.890;4.722;2023-04-06T04:55:27;22.1;;;7.8;;
6561;SDS011;3314;50.890;4.722;2023-04-06T04:57:27;17.5;;;6.6;;
6561;SDS011;3314;50.890;4.722;2023-04-06T04:59:26;20.1;;;7.1;;
6561;SDS011;3314;50.890;4.722;2023-04-06T05:01:26;25.3;;;8.3;;
6561;SDS011;3314;50.890;4.722;2023-04-06T05:03:26;19.2;;;7.5;;
6561;SDS011;3314;50.890;4.722;2023-04-06T05:05:26;23.1;;;8.3;;
6561;SDS011;3314;50.890;4.722;2023-04-06T05:07:25;20.2;;;7.2;;
6561;SDS011;3314;50.890;4.722;2023-04-06T05:09:25;20.9;;;7.6;;
6561;SDS011;3314;50.890;4.722;2023-04-06T05:11:25;20.2;;;8.2;;
6561;SDS011;3314;50.890;4.722;2023-04-06T05:13:25;19.0;;;7.5;;
6561;SDS011;3314;50.890;4.722;2023-04-06T05:15:25;23.9;;;8.1;;
6561;SDS011;3314;50.890;4.722;2023-04-06T05:17:25;21.6;;;7.5;;
6561;SDS011;3314;50.890;4.722;2023-04-06T05:19:24;20.3;;;8.3;;
6561;SDS011;3314;50.890;4.722;2023-04-06T05:21:25;24.7;;;8.4;;
6561;SDS011;3314;50.890;4.722;2023-04-06T05:23:25;21.0;;;7.8;;
6561;SDS011;3314;50.890;4.722;2023-04-06T05:25:24;20.4;;;7.6;;
6561;SDS011;3314;50.890;4.722;2023-04-06T05:27:24;19.5;;;7.9;;
6561;SDS011;3314;50.890;4.722;2023-04-06T05:29:24;21.1;;;7.9;;
6561;SDS011;3314;50.890;4.722;2023-04-06T05:31:24;26.3;;;8.9;;
6561;SDS011;3314;50.890;4.722;2023-04-06T05:33:24;24.0;;;7.5;;
6561;SDS011;3314;50.890;4.722;2023-04-06T05:35:23;19.3;;;7.9;;
6561;SDS011;3314;50.890;4.722;2023-04-06T05:37:23;19.3;;;7.4;;
6561;SDS011;3314;50.890;4.722;2023-04-06T05:39:23;21.5;;;7.5;;
6561;SDS011;3314;50.890;4.722;2023-04-06T05:41:23;17.3;;;6.5;;
6561;SDS011;3314;50.890;4.722;2023-04-06T05:43:22;19.2;;;7.7;;
6561;SDS011;3314;50.890;4.722;2023-04-06T05:45:22;20.6;;;7.9;;
6561;SDS011;3314;50.890;4.722;2023-04-06T05:47:22;22.4;;;7.8;;
6561;SDS011;3314;50.890;4.722;2023-04-06T05:49:22;24.1;;;9.3;;
6561;SDS011;3314;50.890;4.722;2023-04-06T05:51:21;21.6;;;8.4;;
6561;SDS011;3314;50.890;4.722;2023-04-06T05:53:22;21.5;;;7.7;;
6561;SDS011;3314;50.890;4.722;2023-04-06T05:55:21;19.4;;;6.9;;
6561;SDS011;3314;50.890;4.722;2023-04-06T05:57:21;20.1;;;7.2;;
6561;SDS011;3314;50.890;4.722;2023-04-06T05:59:21;20.6;;;7.6;;
6561;SDS011;3314;50.890;4.722;2023-04-06T06:01:21;24.2;;;8.4;;
6561;SDS011;3314;50.890;4.722;2023-04-06T06:03:20;23.5;;;8.6;;
6561;SDS011;3314;50.890;4.722;2023-04-06T06:05:20;21.1;;;7.8;;
6561;SDS011;3314;50.890;4.722;2023-04-06T06:07:20;23.7;;;8.2;;
6561;SDS011;3314;50.890;4.722;2023-04-06T06:09:19;18.5;;;7.1;;
6561;SDS011;3314;50.890;4.722;2023-04-06T06:11:19;22.5;;;8.5;;
6561;SDS011;3314;50.890;4.722;2023-04-06T06:13:19;25.0;;;8.5;;
6561;SDS011;3314;50.890;4.722;2023-04-06T06:15:19;23.5;;;8.6;;
6561;SDS011;3314;50.890;4.722;2023-04-06T06:17:18;23.3;;;8.7;;
6561;SDS011;3314;50.890;4.722;2023-04-06T06:19:18;25.4;;;9.6;;
6561;SDS011;3314;50.890;4.722;2023-04-06T06:21:18;21.2;;;7.9;;
6561;SDS011;3314;50.890;4.722;2023-04-06T06:23:07;20.4;;;8.0;;
6561;SDS011;3314;50.890;4.722;2023-04-06T06:25:07;23.1;;;7.6;;
6561;SDS011;3314;50.890;4.722;2023-04-06T06:27:08;19.7;;;6.9;;
6561;SDS011;3314;50.890;4.722;2023-04-06T06:29:07;21.4;;;7.6;;
6561;SDS011;3314;50.890;4.722;2023-04-06T06:31:07;24.8;;;8.3;;
6561;SDS011;3314;50.890;4.722;2023-04-06T06:33:07;27.3;;;8.9;;
6561;SDS011;3314;50.890;4.722;2023-04-06T06:35:07;20.7;;;7.4;;
6561;SDS011;3314;50.890;4.722;2023-04-06T06:37:07;25.6;;;8.7;;
6561;SDS011;3314;50.890;4.722;2023-04-06T06:39:06;24.3;;;7.6;;
6561;SDS011;3314;50.890;4.722;2023-04-06T06:41:06;22.2;;;8.1;;
6561;SDS011;3314;50.890;4.722;2023-04-06T06:43:06;24.9;;;7.8;;
6561;SDS011;3314;50.890;4.722;2023-04-06T06:45:06;26.7;;;8.5;;
6561;SDS011;3314;50.890;4.722;2023-04-06T06:47:06;22.9;;;8.2;;
6561;SDS011;3314;50.890;4.722;2023-04-06T06:49:06;26.6;;;8.5;;
6561;SDS011;3314;50.890;4.722;2023-04-06T06:51:06;20.9;;;7.8;;
6561;SDS011;3314;50.890;4.722;2023-04-06T06:53:06;25.5;;;8.5;;
6561;SDS011;3314;50.890;4.722;2023-04-06T06:55:06;20.7;;;8.0;;
6561;SDS011;3314;50.890;4.722;2023-04-06T06:57:06;25.8;;;8.0;;
6561;SDS011;3314;50.890;4.722;2023-04-06T06:59:06;25.4;;;8.6;;
6561;SDS011;3314;50.890;4.722;2023-04-06T07:01:06;22.1;;;7.5;;
6561;SDS011;3314;50.890;4.722;2023-04-06T07:03:05;26.2;;;8.4;;
6561;SDS011;3314;50.890;4.722;2023-04-06T07:05:06;22.5;;;7.6;;
6561;SDS011;3314;50.890;4.722;2023-04-06T07:07:05;23.4;;;8.8;;
6561;SDS011;3314;50.890;4.722;2023-04-06T07:09:05;24.0;;;8.7;;
6561;SDS011;3314;50.890;4.722;2023-04-06T07:11:05;20.9;;;8.4;;
6561;SDS011;3314;50.890;4.722;2023-04-06T07:13:05;25.9;;;8.6;;
6561;SDS011;3314;50.890;4.722;2023-04-06T07:15:05;23.2;;;7.9;;
6561;SDS011;3314;50.890;4.722;2023-04-06T07:17:05;24.8;;;9.1;;
6561;SDS011;3314;50.890;4.722;2023-04-06T07:19:05;23.7;;;8.3;;
6561;SDS011;3314;50.890;4.722;2023-04-06T07:21:05;22.0;;;8.4;;
6561;SDS011;3314;50.890;4.722;2023-04-06T07:23:04;23.2;;;8.9;;
6561;SDS011;3314;50.890;4.722;2023-04-06T07:25:05;21.0;;;7.7;;
6561;SDS011;3314;50.890;4.722;2023-04-06T07:27:05;23.7;;;8.9;;
6561;SDS011;3314;50.890;4.722;2023-04-06T07:29:05;20.4;;;7.3;;
6561;SDS011;3314;50.890;4.722;2023-04-06T07:31:04;21.0;;;8.0;;
6561;SDS011;3314;50.890;4.722;2023-04-06T07:33:04;23.4;;;8.4;;
6561;SDS011;3314;50.890;4.722;2023-04-06T07:34:54;20.5;;;6.9;;
6561;SDS011;3314;50.890;4.722;2023-04-06T07:36:54;26.6;;;8.8;;
6561;SDS011;3314;50.890;4.722;2023-04-06T07:38:54;25.1;;;9.7;;
6561;SDS011;3314;50.890;4.722;2023-04-06T07:40:54;24.8;;;9.3;;
6561;SDS011;3314;50.890;4.722;2023-04-06T07:42:54;21.3;;;8.0;;
6561;SDS011;3314;50.890;4.722;2023-04-06T07:44:53;23.3;;;9.0;;
6561;SDS011;3314;50.890;4.722;2023-04-06T07:46:53;22.1;;;7.5;;
6561;SDS011;3314;50.890;4.722;2023-04-06T07:48:53;25.3;;;9.4;;
6561;SDS011;3314;50.890;4.722;2023-04-06T07:51:00;21.2;;;8.5;;
6561;SDS011;3314;50.890;4.722;2023-04-06T07:53:00;21.0;;;7.9;;
6561;SDS011;3314;50.890;4.722;2023-04-06T07:55:00;25.2;;;9.1;;
6561;SDS011;3314;50.890;4.722;2023-04-06T07:57:00;18.2;;;7.8;;
6561;SDS011;3314;50.890;4.722;2023-04-06T07:58:50;20.2;;;7.5;;
6561;SDS011;3314;50.890;4.722;2023-04-06T08:00:49;20.3;;;8.7;;
6561;SDS011;3314;50.890;4.722;2023-04-06T08:02:49;25.8;;;9.2;;
6561;SDS011;3314;50.890;4.722;2023-04-06T08:04:49;26.6;;;8.3;;
6561;SDS011;3314;50.890;4.722;2023-04-06T08:06:48;20.1;;;7.0;;
6561;SDS011;3314;50.890;4.722;2023-04-06T08:08:48;21.2;;;7.8;;
6561;SDS011;3314;50.890;4.722;2023-04-06T08:10:48;18.3;;;6.7;;
6561;SDS011;3314;50.890;4.722;2023-04-06T08:12:48;25.8;;;8.1;;
6561;SDS011;3314;50.890;4.722;2023-04-06T08:14:47;22.9;;;8.3;;
6561;SDS011;3314;50.890;4.722;2023-04-06T08:16:47;23.5;;;6.9;;
6561;SDS011;3314;50.890;4.722;2023-04-06T08:18:47;20.8;;;7.7;;
6561;SDS011;3314;50.890;4.722;2023-04-06T08:20:47;18.5;;;7.9;;
6561;SDS011;3314;50.890;4.722;2023-04-06T08:22:46;17.7;;;7.7;;
6561;SDS011;3314;50.890;4.722;2023-04-06T08:24:46;22.0;;;7.2;;
6561;SDS011;3314;50.890;4.722;2023-04-06T08:26:46;17.5;;;7.1;;
6561;SDS011;3314;50.890;4.722;2023-04-06T08:28:45;22.0;;;6.4;;
6561;SDS011;3314;50.890;4.722;2023-04-06T08:30:45;17.1;;;6.6;;
6561;SDS011;3314;50.890;4.722;2023-04-06T08:32:45;18.4;;;7.4;;
6561;SDS011;3314;50.890;4.722;2023-04-06T08:34:46;18.8;;;7.9;;
6561;SDS011;3314;50.890;4.722;2023-04-06T08:36:46;17.3;;;6.5;;
6561;SDS011;3314;50.890;4.722;2023-04-06T08:38:46;18.2;;;7.1;;
6561;SDS011;3314;50.890;4.722;2023-04-06T08:40:48;17.2;;;7.0;;
6561;SDS011;3314;50.890;4.722;2023-04-06T08:42:50;16.9;;;6.1;;
6561;SDS011;3314;50.890;4.722;2023-04-06T08:44:52;16.3;;;6.3;;
6561;SDS011;3314;50.890;4.722;2023-04-06T08:46:41;16.1;;;6.3;;
6561;SDS011;3314;50.890;4.722;2023-04-06T08:48:41;17.4;;;6.3;;
6561;SDS011;3314;50.890;4.722;2023-04-06T08:50:41;18.2;;;6.2;;
6561;SDS011;3314;50.890;4.722;2023-04-06T08:52:42;17.9;;;6.2;;
6561;SDS011;3314;50.890;4.722;2023-04-06T08:54:42;17.5;;;5.9;;
6561;SDS011;3314;50.890;4.722;2023-04-06T08:56:42;18.3;;;7.0;;
6561;SDS011;3314;50.890;4.722;2023-04-06T08:58:42;17.7;;;5.4;;
6561;SDS011;3314;50.890;4.722;2023-04-06T09:00:42;20.0;;;6.7;;
6561;SDS011;3314;50.890;4.722;2023-04-06T09:02:43;18.6;;;6.5;;
6561;SDS011;3314;50.890;4.722;2023-04-06T09:04:42;20.9;;;6.5;;
6561;SDS011;3314;50.890;4.722;2023-04-06T09:06:43;17.2;;;6.4;;
6561;SDS011;3314;50.890;4.722;2023-04-06T09:08:42;19.2;;;6.8;;
6561;SDS011;3314;50.890;4.722;2023-04-06T09:10:42;14.7;;;5.4;;
6561;SDS011;3314;50.890;4.722;2023-04-06T09:12:42;13.6;;;5.7;;
6561;SDS011;3314;50.890;4.722;2023-04-06T09:14:41;16.4;;;6.5;;
6561;SDS011;3314;50.890;4.722;2023-04-06T09:16:43;16.6;;;6.2;;
6561;SDS011;3314;50.890;4.722;2023-04-06T09:18:43;18.5;;;7.2;;
6561;SDS011;3314;50.890;4.722;2023-04-06T09:20:42;16.1;;;6.3;;
6561;SDS011;3314;50.890;4.722;2023-04-06T09:22:43;20.2;;;6.0;;
6561;SDS011;3314;50.890;4.722;2023-04-06T09:24:43;14.9;;;6.0;;
6561;SDS011;3314;50.890;4.722;2023-04-06T09:26:44;16.9;;;7.3;;
6561;SDS011;3314;50.890;4.722;2023-04-06T09:28:49;17.4;;;6.1;;
6561;SDS011;3314;50.890;4.722;2023-04-06T09:30:47;17.6;;;6.4;;
6561;SDS011;3314;50.890;4.722;2023-04-06T09:33:00;17.0;;;6.3;;
6561;SDS011;3314;50.890;4.722;2023-04-06T09:34:36;16.2;;;5.9;;
6561;SDS011;3314;50.890;4.722;2023-04-06T09:36:38;22.6;;;6.8;;
6561;SDS011;3314;50.890;4.722;2023-04-06T09:38:39;16.6;;;6.2;;
6561;SDS011;3314;50.890;4.722;2023-04-06T09:41:02;18.8;;;6.9;;
6561;SDS011;3314;50.890;4.722;2023-04-06T09:42:40;17.8;;;6.7;;
6561;SDS011;3314;50.890;4.722;2023-04-06T09:44:39;16.8;;;7.0;;
6561;SDS011;3314;50.890;4.722;2023-04-06T09:46:40;18.1;;;6.7;;
6561;SDS011;3314;50.890;4.722;2023-04-06T09:48:40;14.3;;;5.8;;
6561;SDS011;3314;50.890;4.722;2023-04-06T09:50:29;18.7;;;7.5;;
6561;SDS011;3314;50.890;4.722;2023-04-06T09:52:31;16.9;;;7.2;;
6561;SDS011;3314;50.890;4.722;2023-04-06T09:54:31;20.4;;;7.3;;
6561;SDS011;3314;50.890;4.722;2023-04-06T09:56:33;21.3;;;7.4;;
6561;SDS011;3314;50.890;4.722;2023-04-06T09:58:37;18.9;;;7.4;;
6561;SDS011;3314;50.890;4.722;2023-04-06T10:00:41;19.6;;;7.3;;
6561;SDS011;3314;50.890;4.722;2023-04-06T10:02:32;17.8;;;7.2;;
6561;SDS011;3314;50.890;4.722;2023-04-06T10:04:36;18.9;;;7.4;;
6561;SDS011;3314;50.890;4.722;2023-04-06T10:06:36;16.9;;;6.8;;
6561;SDS011;3314;50.890;4.722;2023-04-06T10:08:36;20.5;;;7.8;;
6561;SDS011;3314;50.890;4.722;2023-04-06T10:10:26;18.1;;;7.0;;
6561;SDS011;3314;50.890;4.722;2023-04-06T10:12:26;17.5;;;7.1;;
6561;SDS011;3314;50.890;4.722;2023-04-06T10:14:26;17.7;;;7.5;;
6561;SDS011;3314;50.890;4.722;2023-04-06T10:16:26;15.0;;;6.3;;
6561;SDS011;3314;50.890;4.722;2023-04-06T10:18:27;18.9;;;6.3;;
6561;SDS011;3314;50.890;4.722;2023-04-06T10:20:27;19.5;;;6.9;;
6561;SDS011;3314;50.890;4.722;2023-04-06T10:22:29;18.0;;;6.5;;
6561;SDS011;3314;50.890;4.722;2023-04-06T10:24:31;16.9;;;6.3;;
6561;SDS011;3314;50.890;4.722;2023-04-06T10:26:31;16.8;;;6.1;;
6561;SDS011;3314;50.890;4.722;2023-04-06T10:28:32;17.3;;;6.4;;
6561;SDS011;3314;50.890;4.722;2023-04-06T10:30:32;17.1;;;6.3;;
6561;SDS011;3314;50.890;4.722;2023-04-06T10:32:32;19.7;;;6.8;;
6561;SDS011;3314;50.890;4.722;2023-04-06T10:34:22;16.4;;;5.4;;
6561;SDS011;3314;50.890;4.722;2023-04-06T10:36:22;17.0;;;6.1;;
6561;SDS011;3314;50.890;4.722;2023-04-06T10:38:40;17.9;;;6.5;;
6561;SDS011;3314;50.890;4.722;2023-04-06T10:40:28;23.2;;;6.9;;
6561;SDS011;3314;50.890;4.722;2023-04-06T10:42:36;18.4;;;6.1;;
6561;SDS011;3314;50.890;4.722;2023-04-06T10:44:24;14.4;;;5.1;;
6561;SDS011;3314;50.890;4.722;2023-04-06T10:46:25;16.3;;;5.7;;
6561;SDS011;3314;50.890;4.722;2023-04-06T10:48:35;17.9;;;6.9;;
6561;SDS011;3314;50.890;4.722;2023-04-06T10:50:23;15.2;;;5.2;;
6561;SDS011;3314;50.890;4.722;2023-04-06T10:52:23;18.4;;;6.8;;
6561;SDS011;3314;50.890;4.722;2023-04-06T10:54:24;18.5;;;6.3;;
6561;SDS011;3314;50.890;4.722;2023-04-06T10:56:25;16.4;;;5.3;;
6561;SDS011;3314;50.890;4.722;2023-04-06T10:58:25;17.6;;;6.4;;
6561;SDS011;3314;50.890;4.722;2023-04-06T11:00:25;19.0;;;6.6;;
6561;SDS011;3314;50.890;4.722;2023-04-06T11:02:25;16.7;;;6.6;;
6561;SDS011;3314;50.890;4.722;2023-04-06T11:04:25;16.2;;;6.4;;
6561;SDS011;3314;50.890;4.722;2023-04-06T11:06:26;14.2;;;5.8;;
6561;SDS011;3314;50.890;4.722;2023-04-06T11:08:27;18.2;;;6.5;;
6561;SDS011;3314;50.890;4.722;2023-04-06T11:10:20;17.3;;;6.1;;
6561;SDS011;3314;50.890;4.722;2023-04-06T11:12:21;15.7;;;6.1;;
6561;SDS011;3314;50.890;4.722;2023-04-06T11:14:20;14.6;;;5.2;;
6561;SDS011;3314;50.890;4.722;2023-04-06T11:16:21;15.0;;;5.3;;
6561;SDS011;3314;50.890;4.722;2023-04-06T11:18:20;15.6;;;5.6;;
6561;SDS011;3314;50.890;4.722;2023-04-06T11:20:20;15.2;;;5.5;;
6561;SDS011;3314;50.890;4.722;2023-04-06T11:22:20;15.6;;;6.0;;
6561;SDS011;3314;50.890;4.722;2023-04-06T11:24:20;20.3;;;7.7;;
6561;SDS011;3314;50.890;4.722;2023-04-06T11:26:20;15.7;;;5.8;;
6561;SDS011;3314;50.890;4.722;2023-04-06T11:28:20;18.0;;;6.6;;
6561;SDS011;3314;50.890;4.722;2023-04-06T11:30:20;15.5;;;6.1;;
6561;SDS011;3314;50.890;4.722;2023-04-06T11:32:20;16.3;;;6.5;;
6561;SDS011;3314;50.890;4.722;2023-04-06T11:34:21;16.0;;;7.1;;
6561;SDS011;3314;50.890;4.722;2023-04-06T11:36:20;17.0;;;6.2;;
6561;SDS011;3314;50.890;4.722;2023-04-06T11:38:21;15.7;;;6.3;;
6561;SDS011;3314;50.890;4.722;2023-04-06T11:40:21;16.8;;;6.2;;
6561;SDS011;3314;50.890;4.722;2023-04-06T11:42:10;16.7;;;6.5;;
6561;SDS011;3314;50.890;4.722;2023-04-06T11:44:10;15.9;;;6.1;;
6561;SDS011;3314;50.890;4.722;2023-04-06T11:46:11;15.4;;;6.1;;
6561;SDS011;3314;50.890;4.722;2023-04-06T11:48:17;15.2;;;6.5;;
6561;SDS011;3314;50.890;4.722;2023-04-06T11:50:17;15.7;;;6.7;;
6561;SDS011;3314;50.890;4.722;2023-04-06T11:52:17;15.7;;;5.7;;
6561;SDS011;3314;50.890;4.722;2023-04-06T11:54:18;15.1;;;4.7;;
6561;SDS011;3314;50.890;4.722;2023-04-06T11:56:22;15.9;;;5.8;;
6561;SDS011;3314;50.890;4.722;2023-04-06T11:58:10;12.9;;;5.7;;
6561;SDS011;3314;50.890;4.722;2023-04-06T12:00:10;16.0;;;6.7;;
6561;SDS011;3314;50.890;4.722;2023-04-06T12:02:11;14.0;;;5.7;;
6561;SDS011;3314;50.890;4.722;2023-04-06T12:04:15;15.0;;;5.9;;
6561;SDS011;3314;50.890;4.722;2023-04-06T12:06:20;14.5;;;5.0;;
6561;SDS011;3314;50.890;4.722;2023-04-06T12:08:12;15.2;;;5.9;;
6561;SDS011;3314;50.890;4.722;2023-04-06T12:10:17;19.6;;;6.6;;
6561;SDS011;3314;50.890;4.722;2023-04-06T12:12:10;18.7;;;5.2;;
6561;SDS011;3314;50.890;4.722;2023-04-06T12:14:15;13.8;;;5.6;;
6561;SDS011;3314;50.890;4.722;2023-04-06T12:16:20;16.2;;;6.0;;
6561;SDS011;3314;50.890;4.722;2023-04-06T12:18:12;16.0;;;5.8;;
6561;SDS011;3314;50.890;4.722;2023-04-06T12:20:17;18.3;;;5.8;;
6561;SDS011;3314;50.890;4.722;2023-04-06T12:22:10;15.4;;;6.2;;
6561;SDS011;3314;50.890;4.722;2023-04-06T12:24:14;14.4;;;5.3;;
6561;SDS011;3314;50.890;4.722;2023-04-06T12:26:08;17.2;;;5.8;;
6561;SDS011;3314;50.890;4.722;2023-04-06T12:28:12;15.9;;;5.2;;
6561;SDS011;3314;50.890;4.722;2023-04-06T12:30:17;14.2;;;6.1;;
6561;SDS011;3314;50.890;4.722;2023-04-06T12:32:09;15.1;;;5.5;;
6561;SDS011;3314;50.890;4.722;2023-04-06T12:34:12;13.9;;;5.4;;